Time;durP1;ratioP1;P1;durP2;ratioP2;P2;SDS_P1;SDS_P2;PMS_P1;PMS_P2;Temp;Humidity;BMP_temperature;BMP_pressure;BME280_temperature;BME280_humidity;BME280_pressure;Samples;Min_cycle;Max_cycle;Signal;HPM_P1;HPM_P2
2022/05/31 00:01:02;;;;;;;3.03;2.60;;;10.10;99.90;;;;;;5095595;28;20579;-67
2022/05/31 00:03:28;;;;;;;5.07;3.03;;;10.20;99.90;;;;;;5095166;28;20297;-65
2022/05/31 00:05:54;;;;;;;3.03;2.60;;;10.40;99.90;;;;;;5095333;28;20163;-65
2022/05/31 00:08:19;;;;;;;3.50;2.93;;;10.20;99.90;;;;;;5095305;28;20163;-66
2022/05/31 00:10:45;;;;;;;2.90;2.60;;;10.30;99.90;;;;;;5096875;28;20265;-67
2022/05/31 00:13:11;;;;;;;5.40;3.50;;;10.20;99.90;;;;;;5096020;28;20155;-66
2022/05/31 00:15:36;;;;;;;4.63;3.00;;;10.30;99.90;;;;;;5095653;28;20190;-68
2022/05/31 00:18:02;;;;;;;4.57;2.70;;;10.00;99.90;;;;;;5094984;28;20591;-66
2022/05/31 00:20:28;;;;;;;4.50;3.00;;;10.10;99.90;;;;;;5095420;28;20167;-66
2022/05/31 00:22:54;;;;;;;2.97;2.17;;;10.30;99.90;;;;;;5094683;28;20198;-65
2022/05/31 00:25:20;;;;;;;5.83;2.60;;;10.30;99.90;;;;;;5094793;28;20159;-64
2022/05/31 00:27:46;;;;;;;3.17;2.67;;;10.30;99.90;;;;;;5095137;28;20182;-65
2022/05/31 00:30:13;;;;;;;5.63;2.73;;;10.40;99.90;;;;;;5094204;28;20171;-65
2022/05/31 00:32:43;;;;;;;2.80;2.60;;;10.10;99.90;;;;;;5094462;28;20596;-66
2022/05/31 00:35:15;;;;;;;3.40;3.10;;;9.90;99.90;;;;;;5094244;28;20204;-67
2022/05/31 00:37:41;;;;;;;3.63;2.67;;;9.80;99.90;;;;;;5094130;28;20178;-68
2022/05/31 00:40:09;;;;;;;2.73;2.47;;;9.80;99.90;;;;;;5094325;28;20610;-66
2022/05/31 00:42:53;;;;;;;2.77;2.53;;;9.90;99.90;;;;;;5094797;28;20240;-64
2022/05/31 00:45:20;;;;;;;3.10;2.60;;;9.80;99.90;;;;;;5094173;28;20164;-66
2022/05/31 00:47:46;;;;;;;3.57;2.97;;;9.80;99.90;;;;;;5093650;28;20162;-66
2022/05/31 00:50:29;;;;;;;3.03;2.67;;;9.90;99.90;;;;;;5093866;28;20617;-65
2022/05/31 00:53:00;;;;;;;3.20;2.90;;;10.00;99.90;;;;;;5094237;28;20174;-65
2022/05/31 00:55:37;;;;;;;2.97;2.50;;;10.10;99.90;;;;;;5094214;28;20237;-65
2022/05/31 00:58:13;;;;;;;2.77;2.57;;;10.00;99.90;;;;;;5093973;28;20151;-67
2022/05/31 01:00:41;;;;;;;3.30;3.00;;;10.00;99.90;;;;;;5094622;28;20202;-67
2022/05/31 01:03:09;;;;;;;3.10;2.80;;;9.90;99.90;;;;;;5093553;28;20223;-65
2022/05/31 01:05:35;;;;;;;2.63;2.43;;;9.90;99.90;;;;;;5094089;28;20174;-64
2022/05/31 01:08:01;;;;;;;4.20;2.60;;;9.80;99.90;;;;;;5094252;28;20165;-66
2022/05/31 01:10:27;;;;;;;2.90;2.70;;;9.90;99.90;;;;;;5092519;28;20622;-65
2022/05/31 01:12:53;;;;;;;4.00;2.53;;;9.70;99.90;;;;;;5093683;28;20171;-64
2022/05/31 01:15:19;;;;;;;3.53;2.80;;;9.50;99.90;;;;;;5094251;28;20582;-66
2022/05/31 01:17:45;;;;;;;4.20;2.30;;;9.40;99.90;;;;;;5093907;28;20271;-66
2022/05/31 01:20:17;;;;;;;3.90;3.10;;;9.50;99.90;;;;;;5093743;28;20594;-66
2022/05/31 01:22:50;;;;;;;3.03;2.73;;;9.60;99.90;;;;;;5093633;28;20349;-67
2022/05/31 01:25:22;;;;;;;3.00;2.70;;;9.60;99.90;;;;;;5093570;28;20505;-65
2022/05/31 01:28:04;;;;;;;5.70;3.00;;;9.70;99.90;;;;;;5093806;28;20238;-66
2022/05/31 01:30:32;;;;;;;2.70;2.50;;;9.50;99.90;;;;;;5093732;28;20155;-65
2022/05/31 01:33:04;;;;;;;3.67;2.80;;;9.30;99.90;;;;;;5093253;28;20261;-67
2022/05/31 01:35:34;;;;;;;3.87;2.90;;;9.40;99.90;;;;;;5093502;28;20165;-66
2022/05/31 01:38:03;;;;;;;3.00;2.70;;;9.30;99.90;;;;;;5093664;28;20163;-67
2022/05/31 01:40:47;;;;;;;2.83;2.63;;;9.20;99.90;;;;;;5093117;28;20189;-66
2022/05/31 01:43:13;;;;;;;3.17;2.87;;;9.10;99.90;;;;;;5094177;28;20554;-65
2022/05/31 01:45:54;;;;;;;3.47;2.50;;;9.10;99.90;;;;;;5093734;28;20154;-65
2022/05/31 01:48:21;;;;;;;4.77;3.33;;;9.00;99.90;;;;;;5093157;28;20167;-66
2022/05/31 01:50:46;;;;;;;3.77;2.70;;;9.10;99.90;;;;;;5093505;28;20212;-65
2022/05/31 01:53:14;;;;;;;2.83;2.53;;;9.10;99.90;;;;;;5093421;28;20258;-66
2022/05/31 01:55:43;;;;;;;3.20;2.90;;;9.00;99.90;;;;;;5093543;28;20584;-64
2022/05/31 01:58:18;;;;;;;3.20;2.90;;;8.90;99.90;;;;;;5093087;28;20158;-66
2022/05/31 02:00:44;;;;;;;3.77;3.37;;;8.90;99.90;;;;;;5093738;28;20162;-66
2022/05/31 02:03:10;;;;;;;3.67;3.30;;;8.80;99.90;;;;;;5093642;28;20310;-64
2022/05/31 02:05:42;;;;;;;4.07;3.17;;;8.50;99.90;;;;;;5093541;28;20566;-65
2022/05/31 02:08:08;;;;;;;4.20;3.80;;;8.50;99.90;;;;;;5093865;28;20196;-64
2022/05/31 02:10:33;;;;;;;4.53;3.83;;;8.70;99.90;;;;;;5092591;28;20163;-67
2022/05/31 02:12:59;;;;;;;4.80;3.87;;;8.80;99.90;;;;;;5093313;28;20173;-66
2022/05/31 02:15:25;;;;;;;4.63;3.73;;;8.60;99.90;;;;;;5092771;28;20171;-64
2022/05/31 02:17:51;;;;;;;4.03;3.60;;;8.70;99.90;;;;;;5093012;28;20173;-64
2022/05/31 02:20:16;;;;;;;3.83;3.43;;;8.70;99.90;;;;;;5093588;28;20167;-65
2022/05/31 02:22:42;;;;;;;4.00;3.57;;;8.70;99.90;;;;;;5093376;28;20203;-68
2022/05/31 02:25:08;;;;;;;4.87;3.80;;;8.70;99.90;;;;;;5093265;28;20159;-66
2022/05/31 02:27:34;;;;;;;3.60;3.30;;;8.60;99.90;;;;;;5108588;28;20614;-66
2022/05/31 02:29:59;;;;;;;5.27;3.67;;;8.50;99.90;;;;;;5092911;28;20170;-66
2022/05/31 02:32:25;;;;;;;4.83;3.80;;;8.50;99.90;;;;;;5093155;28;20163;-66
2022/05/31 02:34:51;;;;;;;4.47;3.83;;;8.40;99.90;;;;;;5093226;28;20164;-66
2022/05/31 02:37:19;;;;;;;4.50;3.30;;;8.30;99.90;;;;;;5092933;28;20219;-65
2022/05/31 02:39:45;;;;;;;3.97;3.57;;;8.50;99.90;;;;;;5092932;28;20650;-67
2022/05/31 02:42:11;;;;;;;4.00;3.57;;;8.70;99.90;;;;;;5093148;28;20189;-66
2022/05/31 02:44:37;;;;;;;4.20;3.80;;;8.80;99.90;;;;;;5093015;28;20186;-65
2022/05/31 02:47:04;;;;;;;7.93;3.80;;;8.80;99.90;;;;;;5093318;28;20201;-66
2022/05/31 02:49:30;;;;;;;4.33;3.53;;;8.90;99.90;;;;;;5092958;28;20189;-65
2022/05/31 02:51:58;;;;;;;4.10;3.60;;;8.70;99.90;;;;;;5093240;28;20167;-65
2022/05/31 02:54:23;;;;;;;5.17;3.80;;;8.70;99.90;;;;;;5093161;28;20171;-64
2022/05/31 02:56:49;;;;;;;4.70;3.90;;;8.70;99.90;;;;;;5093171;28;20169;-65
2022/05/31 02:59:15;;;;;;;3.97;3.57;;;8.90;99.90;;;;;;5092775;28;20248;-64
2022/05/31 03:01:42;;;;;;;5.77;3.87;;;8.80;99.90;;;;;;5092635;28;20245;-64
2022/05/31 03:04:08;;;;;;;5.30;3.77;;;8.70;99.90;;;;;;5092860;28;20235;-67
2022/05/31 03:06:34;;;;;;;4.03;3.63;;;8.70;99.90;;;;;;5093128;28;20485;-64
2022/05/31 03:09:00;;;;;;;4.63;3.50;;;8.70;99.90;;;;;;5092976;28;20167;-65
2022/05/31 03:11:39;;;;;;;4.07;3.67;;;8.60;99.90;;;;;;5094669;28;20181;-67
2022/05/31 03:14:20;;;;;;;4.17;3.77;;;8.70;99.90;;;;;;5096345;28;20186;-64
2022/05/31 03:16:52;;;;;;;5.23;4.20;;;8.90;99.90;;;;;;5096024;28;20174;-65
2022/05/31 03:19:24;;;;;;;5.60;4.33;;;8.50;99.90;;;;;;5096564;28;20177;-63
2022/05/31 03:21:59;;;;;;;4.23;3.67;;;8.60;99.90;;;;;;5096162;28;20159;-66
2022/05/31 03:24:33;;;;;;;4.47;3.43;;;8.60;99.90;;;;;;5095875;28;20209;-63
2022/05/31 03:27:02;;;;;;;4.00;3.43;;;8.30;99.90;;;;;;5095904;28;20155;-66
2022/05/31 03:29:28;;;;;;;4.07;3.57;;;8.50;99.90;;;;;;5096031;28;20159;-64
2022/05/31 03:31:55;;;;;;;4.43;3.60;;;8.30;99.90;;;;;;5096566;28;20253;-63
2022/05/31 03:34:21;;;;;;;3.77;3.37;;;8.60;99.90;;;;;;5096669;28;20224;-64
2022/05/31 03:36:46;;;;;;;5.97;4.10;;;8.70;99.90;;;;;;5096588;28;20155;-65
2022/05/31 03:39:12;;;;;;;4.50;3.90;;;8.80;99.90;;;;;;5096934;28;20162;-64
2022/05/31 03:41:37;;;;;;;7.07;4.00;;;8.90;99.90;;;;;;5097650;28;20194;-65
2022/05/31 03:44:04;;;;;;;4.10;3.70;;;8.90;99.90;;;;;;5097321;28;20231;-63
2022/05/31 03:46:29;;;;;;;5.00;4.07;;;8.70;99.90;;;;;;5096636;28;20166;-64
2022/05/31 03:48:55;;;;;;;5.97;4.13;;;8.70;99.90;;;;;;5097834;28;20216;-64
2022/05/31 03:51:21;;;;;;;4.87;3.83;;;8.50;99.90;;;;;;5098546;28;20159;-64
2022/05/31 03:53:46;;;;;;;4.47;3.97;;;8.60;99.90;;;;;;5095804;28;20607;-64
2022/05/31 03:56:13;;;;;;;4.47;3.70;;;8.80;99.90;;;;;;5095769;28;20163;-64
2022/05/31 03:58:40;;;;;;;4.47;3.80;;;8.90;99.90;;;;;;5095931;28;20235;-65
2022/05/31 04:01:06;;;;;;;4.93;3.30;;;9.00;99.90;;;;;;5095572;28;20224;-66
2022/05/31 04:03:32;;;;;;;4.00;3.60;;;8.90;99.90;;;;;;5095653;28;20233;-66
2022/05/31 04:05:58;;;;;;;3.87;3.23;;;8.60;99.90;;;;;;5094960;28;20166;-66
2022/05/31 04:08:24;;;;;;;4.40;4.00;;;8.80;99.90;;;;;;5095269;28;20220;-64
2022/05/31 04:10:50;;;;;;;4.20;3.77;;;8.70;99.90;;;;;;5095054;28;20223;-65
2022/05/31 04:13:17;;;;;;;4.00;3.60;;;8.70;99.90;;;;;;5095334;28;20178;-64
2022/05/31 04:15:43;;;;;;;4.33;3.83;;;8.70;99.90;;;;;;5095546;28;20174;-64
2022/05/31 04:18:08;;;;;;;5.70;3.73;;;8.90;99.90;;;;;;5095019;28;20170;-64
2022/05/31 04:20:37;;;;;;;4.67;3.57;;;8.90;99.90;;;;;;5095829;28;20224;-65
2022/05/31 04:25:48;;;;;;;4.33;3.53;;;8.80;99.90;;;;;;5094899;28;20169;-66
2022/05/31 04:28:15;;;;;;;4.33;3.67;;;9.10;99.90;;;;;;5094225;28;20167;-63
2022/05/31 04:30:44;;;;;;;3.73;3.33;;;9.10;99.90;;;;;;5095050;28;20155;-65
2022/05/31 04:33:10;;;;;;;4.27;3.27;;;8.70;99.90;;;;;;5110441;28;20213;-64
2022/05/31 04:35:35;;;;;;;4.77;3.43;;;8.80;99.90;;;;;;5094847;28;20163;-64
2022/05/31 04:38:01;;;;;;;4.40;3.70;;;9.10;99.90;;;;;;5094717;28;20498;-64
2022/05/31 04:40:26;;;;;;;4.10;3.30;;;9.00;99.90;;;;;;5094470;28;20185;-66
2022/05/31 04:42:52;;;;;;;4.67;3.53;;;9.20;99.90;;;;;;5094247;28;20207;-65
2022/05/31 04:45:18;;;;;;;4.23;3.47;;;9.30;99.90;;;;;;5095035;28;20194;-64
2022/05/31 04:47:44;;;;;;;4.03;3.63;;;9.20;99.90;;;;;;5094562;28;20216;-64
2022/05/31 04:50:10;;;;;;;3.20;2.90;;;9.10;99.90;;;;;;5094958;28;20163;-65
2022/05/31 04:52:36;;;;;;;3.67;3.37;;;9.30;99.90;;;;;;5094643;28;20178;-66
2022/05/31 04:55:03;;;;;;;6.53;3.70;;;9.30;99.90;;;;;;5093928;28;20163;-65
2022/05/31 04:57:28;;;;;;;3.60;3.30;;;9.40;99.90;;;;;;5094046;28;20162;-65
2022/05/31 04:59:54;;;;;;;4.50;3.60;;;9.10;99.90;;;;;;5094039;28;20474;-67
2022/05/31 05:02:19;;;;;;;4.10;3.43;;;9.30;99.90;;;;;;5093962;28;20225;-66
2022/05/31 05:04:45;;;;;;;6.37;3.90;;;9.40;99.90;;;;;;5094736;28;20243;-66
2022/05/31 05:07:10;;;;;;;5.03;3.90;;;9.50;99.90;;;;;;5098559;28;20159;-64
2022/05/31 05:09:36;;;;;;;4.10;3.53;;;9.30;99.90;;;;;;5100430;28;20162;-66
2022/05/31 05:12:02;;;;;;;3.37;3.07;;;9.60;99.90;;;;;;5101787;28;20223;-64
2022/05/31 05:14:30;;;;;;;3.73;3.40;;;9.60;99.90;;;;;;5107116;28;20177;-65
2022/05/31 05:16:56;;;;;;;3.40;3.10;;;9.60;99.90;;;;;;5107319;28;20235;-64
2022/05/31 05:19:21;;;;;;;4.47;3.20;;;9.80;99.90;;;;;;5106429;28;20170;-67
2022/05/31 05:21:47;;;;;;;3.27;2.80;;;9.80;99.90;;;;;;5101170;28;20168;-64
2022/05/31 05:24:12;;;;;;;3.90;2.83;;;9.90;99.90;;;;;;5096359;28;20186;-64
2022/05/31 05:26:38;;;;;;;3.70;2.80;;;10.30;99.90;;;;;;5098589;28;20195;-65
2022/05/31 05:31:52;;;;;;;2.27;2.07;;;10.40;99.90;;;;;;5099072;28;20165;-66
2022/05/31 05:34:18;;;;;;;3.17;2.77;;;10.50;99.90;;;;;;5098666;28;20159;-65
2022/05/31 05:36:45;;;;;;;3.20;2.80;;;10.40;99.90;;;;;;5104951;28;20155;-67
2022/05/31 05:39:11;;;;;;;3.40;3.07;;;10.20;99.90;;;;;;5102488;28;20549;-65
2022/05/31 05:41:37;;;;;;;3.27;2.90;;;10.20;99.90;;;;;;5093245;28;20159;-65
2022/05/31 05:44:03;;;;;;;4.10;2.87;;;10.40;99.90;;;;;;5093428;28;20190;-64
2022/05/31 05:46:29;;;;;;;3.93;2.63;;;10.10;99.90;;;;;;5093059;28;20189;-65
2022/05/31 05:48:55;;;;;;;6.30;2.93;;;10.20;99.90;;;;;;5093531;28;20168;-64
2022/05/31 05:51:26;;;;;;;3.00;2.70;;;10.30;99.90;;;;;;5093626;28;20199;-65
2022/05/31 05:53:52;;;;;;;2.63;2.13;;;10.40;99.90;;;;;;5093439;28;20163;-64
2022/05/31 05:56:19;;;;;;;4.40;2.60;;;10.60;99.90;;;;;;5093077;28;20170;-65
2022/05/31 05:58:45;;;;;;;3.53;2.77;;;10.60;99.90;;;;;;5093396;28;20169;-63
2022/05/31 06:01:22;;;;;;;4.77;3.00;;;10.50;99.90;;;;;;5093720;28;20163;-64
2022/05/31 06:04:03;;;;;;;4.13;2.23;;;10.40;99.90;;;;;;5092956;28;20300;-65
2022/05/31 06:06:31;;;;;;;2.80;2.47;;;10.50;99.90;;;;;;5093039;28;20162;-65
2022/05/31 06:09:05;;;;;;;3.60;2.43;;;10.70;99.90;;;;;;5093200;28;20149;-65
2022/05/31 06:11:38;;;;;;;3.73;2.83;;;10.80;99.90;;;;;;5093300;28;20502;-63
2022/05/31 06:14:25;;;;;;;3.80;2.67;;;10.70;99.90;;;;;;5093437;28;20214;-64
2022/05/31 06:16:57;;;;;;;3.33;2.83;;;10.90;99.90;;;;;;5092847;28;20159;-64
2022/05/31 06:19:29;;;;;;;2.83;2.50;;;11.10;99.90;;;;;;5092214;28;20211;-64
2022/05/31 06:21:55;;;;;;;3.67;2.43;;;11.00;99.90;;;;;;5092149;28;20170;-65
2022/05/31 06:24:23;;;;;;;4.83;2.87;;;11.10;99.90;;;;;;5093440;28;20195;-65
2022/05/31 06:26:49;;;;;;;4.43;3.03;;;11.20;99.90;;;;;;5092463;28;20167;-66
2022/05/31 06:29:15;;;;;;;6.50;2.47;;;11.20;99.90;;;;;;5094639;28;20472;-64
2022/05/31 06:31:40;;;;;;;2.93;2.57;;;11.30;99.90;;;;;;5091590;28;20680;-65
2022/05/31 06:34:06;;;;;;;4.90;2.40;;;11.60;99.90;;;;;;5092960;28;20212;-68
2022/05/31 06:36:32;;;;;;;5.83;2.43;;;11.40;99.90;;;;;;5092889;28;20167;-64
2022/05/31 06:38:57;;;;;;;3.53;2.43;;;11.30;99.90;;;;;;5093214;28;20170;-66
2022/05/31 06:41:23;;;;;;;3.87;2.83;;;11.50;99.90;;;;;;5092884;28;20185;-64
2022/05/31 06:43:49;;;;;;;3.67;2.70;;;11.40;99.90;;;;;;5093195;28;20202;-66
2022/05/31 06:46:15;;;;;;;3.80;2.50;;;11.80;99.90;;;;;;5095984;28;20539;-64
2022/05/31 06:48:41;;;;;;;4.20;2.47;;;11.90;99.90;;;;;;5096825;28;20284;-64
2022/05/31 06:51:12;;;;;;;6.70;2.47;;;12.10;99.90;;;;;;5096930;28;20249;-65
2022/05/31 06:58:50;;;;;;;3.07;2.73;;;12.60;99.90;;;;;;5097976;28;20159;-65
2022/05/31 07:01:16;;;;;;;5.37;3.07;;;12.80;99.90;;;;;;5096610;28;20166;-64
2022/05/31 07:03:42;;;;;;;2.70;2.43;;;12.90;99.90;;;;;;5096317;28;20610;-65
2022/05/31 07:06:08;;;;;;;5.23;2.63;;;13.10;99.90;;;;;;5096530;28;20163;-66
2022/05/31 07:08:33;;;;;;;3.07;2.50;;;13.20;99.90;;;;;;5096286;28;20194;-64
2022/05/31 07:11:02;;;;;;;2.70;2.50;;;13.30;99.90;;;;;;5096170;28;20162;-65
2022/05/31 07:13:28;;;;;;;6.83;2.70;;;13.30;99.90;;;;;;5096447;28;20189;-67
2022/05/31 07:15:53;;;;;;;3.60;2.43;;;13.80;99.90;;;;;;5093381;28;20578;-65
2022/05/31 07:18:19;;;;;;;3.70;2.60;;;13.80;99.90;;;;;;5096041;28;20194;-66
2022/05/31 07:20:45;;;;;;;3.03;2.73;;;14.00;99.90;;;;;;5096135;28;20167;-66
2022/05/31 07:23:11;;;;;;;3.20;2.60;;;13.90;99.90;;;;;;5095808;28;20681;-66
2022/05/31 07:25:37;;;;;;;4.07;2.80;;;14.00;99.90;;;;;;5096442;28;20159;-67
2022/05/31 07:28:03;;;;;;;2.83;2.63;;;14.20;99.90;;;;;;5096220;28;20173;-65
2022/05/31 07:30:28;;;;;;;3.83;2.80;;;14.60;99.90;;;;;;5096658;28;20174;-66
2022/05/31 07:32:54;;;;;;;4.47;2.80;;;14.60;99.90;;;;;;5096369;28;20163;-65
2022/05/31 07:35:20;;;;;;;3.13;2.67;;;14.60;99.90;;;;;;5096340;28;20170;-64
2022/05/31 07:37:45;;;;;;;3.60;2.60;;;14.70;99.90;;;;;;5097400;28;20201;-66
2022/05/31 07:40:11;;;;;;;3.80;2.63;;;14.80;99.90;;;;;;5095557;28;20532;-64
2022/05/31 07:42:37;;;;;;;2.70;2.37;;;14.90;99.90;;;;;;5096855;28;20199;-66
2022/05/31 07:45:03;;;;;;;4.43;2.70;;;14.90;99.90;;;;;;5096719;28;20200;-67
2022/05/31 07:47:30;;;;;;;2.60;2.40;;;15.20;99.90;;;;;;5099391;28;20670;-66
2022/05/31 07:49:56;;;;;;;5.70;2.40;;;15.20;99.90;;;;;;5106500;28;20253;-64
2022/05/31 07:52:22;;;;;;;2.63;2.20;;;15.60;99.90;;;;;;5109003;28;20155;-64
2022/05/31 07:54:48;;;;;;;3.20;2.47;;;15.70;99.90;;;;;;5110769;28;20163;-65
2022/05/31 07:59:58;;;;;;;2.67;2.20;;;16.30;99.90;;;;;;5108124;28;20165;-68
2022/05/31 08:02:24;;;;;;;3.87;1.97;;;16.10;99.90;;;;;;5106363;28;20616;-64
2022/05/31 08:04:50;;;;;;;2.10;1.90;;;16.40;99.90;;;;;;5104080;28;20182;-64
2022/05/31 08:07:15;;;;;;;2.53;1.77;;;16.80;99.90;;;;;;5103261;28;20236;-65
2022/05/31 08:09:41;;;;;;;2.80;2.10;;;16.70;99.90;;;;;;5102499;28;20177;-64
2022/05/31 08:12:10;;;;;;;2.85;2.10;;;16.90;99.90;;;;;;5105848;28;20224;-66
2022/05/31 08:14:36;;;;;;;2.00;1.60;;;17.10;99.90;;;;;;5106224;28;20173;-65
2022/05/31 08:17:03;;;;;;;2.38;2.03;;;17.10;99.90;;;;;;5110208;28;20186;-69
2022/05/31 08:19:30;;;;;;;1.85;1.75;;;17.10;99.90;;;;;;5112087;28;20175;-65
2022/05/31 08:21:56;;;;;;;4.82;2.42;;;17.20;99.90;;;;;;5111276;28;20162;-65
2022/05/31 08:24:22;;;;;;;8.00;2.50;;;17.30;99.90;;;;;;5112777;28;20466;-71
2022/05/31 08:26:48;;;;;;;4.50;2.08;;;17.60;99.90;;;;;;5108696;28;20190;-68
2022/05/31 08:29:14;;;;;;;1.98;1.80;;;17.60;99.90;;;;;;5104966;28;20171;-65
2022/05/31 08:31:40;;;;;;;2.63;1.90;;;17.70;99.90;;;;;;5107893;28;20182;-67
2022/05/31 08:34:07;;;;;;;1.92;1.73;;;17.80;99.90;;;;;;5103757;28;20250;-66
2022/05/31 08:36:33;;;;;;;2.38;2.13;;;17.90;99.90;;;;;;5103715;28;20159;-64
2022/05/31 08:38:58;;;;;;;4.47;1.92;;;18.10;99.90;;;;;;5111294;28;20174;-66
2022/05/31 08:41:30;;;;;;;2.03;1.80;;;18.20;99.90;;;;;;5111848;28;20230;-66
2022/05/31 08:44:12;;;;;;;2.75;1.52;;;18.10;99.90;;;;;;5107507;28;20191;-65
2022/05/31 08:46:43;;;;;;;2.20;1.67;;;17.90;99.90;;;;;;5094658;28;20203;-67
2022/05/31 08:53:05;;;;;;;3.80;1.60;;;18.50;99.90;;;;;;5094163;28;20633;-66
2022/05/31 08:58:34;;;;;;;1.63;1.52;;;18.80;99.90;;;;;;5094212;28;20229;-64
2022/05/31 09:01:03;;;;;;;1.73;1.58;;;18.80;99.90;;;;;;5094645;28;20166;-66
2022/05/31 09:03:35;;;;;;;1.80;1.70;;;18.80;99.90;;;;;;5094015;28;20222;-65
2022/05/31 09:06:06;;;;;;;1.90;1.67;;;18.70;99.90;;;;;;5092847;28;20221;-64
2022/05/31 09:08:44;;;;;;;4.40;1.50;;;19.00;99.90;;;;;;5093453;28;20178;-63
2022/05/31 09:11:31;;;;;;;1.75;1.42;;;19.10;99.90;;;;;;5094255;28;20257;-65
2022/05/31 09:14:02;;;;;;;2.22;1.50;;;19.30;99.90;;;;;;5094788;28;20167;-65
2022/05/31 09:16:46;;;;;;;4.03;2.15;;;19.50;98.30;;;;;;5094200;28;20195;-66
2022/05/31 09:19:21;;;;;;;2.13;1.83;;;19.70;97.30;;;;;;5094424;28;20192;-65
2022/05/31 09:21:48;;;;;;;2.60;2.30;;;19.90;96.10;;;;;;5094301;28;20166;-65
2022/05/31 09:24:18;;;;;;;1.60;1.40;;;20.20;95.60;;;;;;5094660;28;20225;-65
2022/05/31 09:26:53;;;;;;;1.98;1.52;;;20.10;92.50;;;;;;5092822;28;20611;-66
2022/05/31 09:29:38;;;;;;;3.30;1.40;;;20.10;92.00;;;;;;5094183;28;20170;-64
2022/05/31 09:32:36;;;;;;;2.28;1.80;;;20.00;90.80;;;;;;5093332;28;20194;-65
2022/05/31 09:35:15;;;;;;;12.57;6.65;;;20.00;91.60;;;;;;5096731;28;20158;-63
2022/05/31 09:38:14;;;;;;;2.47;1.98;;;20.20;93.00;;;;;;5104929;28;20162;-64
2022/05/31 09:41:08;;;;;;;1.63;1.52;;;20.10;85.30;;;;;;5107609;28;20178;-64
2022/05/31 09:43:57;;;;;;;2.08;1.85;;;20.20;80.00;;;;;;5105207;28;20706;-64
2022/05/31 09:46:26;;;;;;;1.90;1.55;;;19.90;85.40;;;;;;5101956;28;20167;-64
2022/05/31 09:48:52;;;;;;;1.73;1.30;;;20.40;87.70;;;;;;5093832;28;20174;-65
2022/05/31 09:51:39;;;;;;;6.53;2.08;;;20.80;87.10;;;;;;5093427;28;20296;-65
2022/05/31 09:57:07;;;;;;;1.98;1.50;;;21.10;81.10;;;;;;5093090;28;20162;-65
2022/05/31 09:59:44;;;;;;;1.67;1.40;;;21.10;75.70;;;;;;5093483;28;20476;-64
2022/05/31 10:02:33;;;;;;;2.17;1.42;;;20.60;75.30;;;;;;5093494;28;20209;-65
2022/05/31 10:05:18;;;;;;;1.77;1.40;;;20.50;76.10;;;;;;5093561;28;20224;-64
2022/05/31 10:07:43;;;;;;;1.85;1.35;;;21.00;72.50;;;;;;5093259;28;20159;-64
2022/05/31 10:10:30;;;;;;;1.40;1.30;;;20.70;70.60;;;;;;5093604;28;20621;-66
2022/05/31 10:13:08;;;;;;;1.85;1.60;;;20.20;70.10;;;;;;5093647;28;20165;-63
2022/05/31 10:15:55;;;;;;;1.33;1.23;;;20.10;71.10;;;;;;5093364;28;20155;-65
2022/05/31 10:18:28;;;;;;;2.92;1.33;;;20.40;73.90;;;;;;5093643;28;20171;-65
2022/05/31 10:21:04;;;;;;;2.80;1.20;;;20.80;72.60;;;;;;5097660;28;20157;-65
2022/05/31 10:23:41;;;;;;;3.03;1.73;;;20.60;76.40;;;;;;5096306;28;20209;-66
2022/05/31 10:26:07;;;;;;;2.67;1.20;;;20.10;73.90;;;;;;5097297;28;20157;-67
2022/05/31 10:28:35;;;;;;;1.63;1.40;;;20.00;74.60;;;;;;5097108;28;20163;-65
2022/05/31 10:31:21;;;;;;;6.13;1.60;;;19.70;74.10;;;;;;5095982;28;20167;-66
2022/05/31 10:33:58;;;;;;;2.33;1.52;;;19.40;75.10;;;;;;5097551;28;20205;-65
2022/05/31 10:36:49;;;;;;;7.65;2.60;;;19.50;77.10;;;;;;5097956;28;20177;-65
2022/05/31 10:39:22;;;;;;;1.85;1.42;;;20.40;76.30;;;;;;5097889;28;20484;-65
2022/05/31 10:41:49;;;;;;;2.45;1.63;;;20.70;71.30;;;;;;5097428;28;20159;-66
2022/05/31 10:44:38;;;;;;;3.15;1.38;;;21.10;69.20;;;;;;5097289;28;20214;-66
2022/05/31 10:47:16;;;;;;;1.98;1.30;;;21.70;67.20;;;;;;5097122;28;20182;-66
2022/05/31 10:49:43;;;;;;;1.35;1.25;;;21.70;62.80;;;;;;5096886;28;20158;-65
2022/05/31 10:52:38;;;;;;;2.50;1.60;;;21.90;63.10;;;;;;5096943;28;20167;-64
2022/05/31 10:55:39;;;;;;;2.42;1.27;;;22.30;61.30;;;;;;5090175;28;20240;-66
2022/05/31 10:58:33;;;;;;;1.77;1.50;;;22.30;59.10;;;;;;5096624;28;20178;-66
2022/05/31 11:01:03;;;;;;;1.77;1.55;;;22.80;58.20;;;;;;5097204;28;20171;-65
2022/05/31 11:04:06;;;;;;;1.73;1.63;;;22.50;56.00;;;;;;5096830;28;20227;-65
2022/05/31 11:06:57;;;;;;;1.92;1.38;;;22.60;57.40;;;;;;5084089;28;20313;-65
2022/05/31 11:12:18;;;;;;;2.55;1.55;;;22.50;56.20;;;;;;5096695;28;20174;-65
2022/05/31 11:14:57;;;;;;;1.55;1.45;;;22.10;55.00;;;;;;5096219;28;20260;-65
2022/05/31 11:18:00;;;;;;;1.98;1.70;;;21.80;55.10;;;;;;5096418;28;20162;-65
2022/05/31 11:20:48;;;;;;;5.65;3.55;;;21.90;57.20;;;;;;5096376;28;20544;-65
2022/05/31 11:23:25;;;;;;;2.95;2.35;;;22.80;57.60;;;;;;5095692;28;20202;-67
2022/05/31 11:25:58;;;;;;;1.63;1.52;;;23.00;55.60;;;;;;5096907;28;20159;-65
2022/05/31 11:28:44;;;;;;;1.40;1.30;;;23.00;54.90;;;;;;5096813;28;20261;-64
2022/05/31 11:31:18;;;;;;;3.17;1.52;;;23.20;54.30;;;;;;5107913;28;20174;-65
2022/05/31 11:34:13;;;;;;;2.25;1.50;;;22.90;54.40;;;;;;5117228;28;20197;-64
2022/05/31 11:37:10;;;;;;;1.85;1.50;;;22.50;53.40;;;;;;5116720;28;20172;-65
2022/05/31 11:39:42;;;;;;;1.45;1.35;;;22.40;53.40;;;;;;5116627;28;20158;-64
2022/05/31 11:42:31;;;;;;;3.95;2.70;;;21.90;54.80;;;;;;5116740;28;20201;-66
2022/05/31 11:45:18;;;;;;;1.63;1.45;;;21.90;56.00;;;;;;5117715;28;20166;-67
2022/05/31 11:48:02;;;;;;;1.90;1.42;;;22.10;56.80;;;;;;5117762;28;20231;-65
2022/05/31 11:50:50;;;;;;;1.77;1.60;;;22.10;55.10;;;;;;5122799;28;20150;-66
2022/05/31 11:53:48;;;;;;;2.83;1.60;;;22.20;54.30;;;;;;5126953;28;20271;-65
2022/05/31 11:56:33;;;;;;;4.70;1.40;;;22.80;53.00;;;;;;5114076;28;20213;-65
2022/05/31 11:59:03;;;;;;;4.72;1.48;;;22.10;53.80;;;;;;5120867;28;20177;-66
2022/05/31 12:01:47;;;;;;;2.15;1.80;;;21.90;55.80;;;;;;5116081;28;20166;-65
2022/05/31 12:04:33;;;;;;;1.50;1.40;;;22.40;55.60;;;;;;5115398;28;20237;-65
2022/05/31 12:07:34;;;;;;;1.85;1.50;;;22.70;53.20;;;;;;5115763;28;20197;-66
2022/05/31 12:10:12;;;;;;;1.50;1.40;;;22.30;52.50;;;;;;5070333;27;20214;-66
2022/05/31 12:12:39;;;;;;;2.00;1.52;;;22.10;52.20;;;;;;5115358;28;20299;-65
2022/05/31 12:15:20;;;;;;;1.90;1.45;;;22.00;52.70;;;;;;5115692;28;20158;-66
2022/05/31 12:18:01;;;;;;;1.90;1.70;;;22.20;52.20;;;;;;5115866;28;20169;-65
2022/05/31 12:20:41;;;;;;;3.08;1.73;;;22.00;52.50;;;;;;5115634;28;20158;-66
2022/05/31 12:23:19;;;;;;;1.63;1.27;;;21.90;52.10;;;;;;5116112;27;20246;-65
2022/05/31 12:25:51;;;;;;;2.42;1.70;;;21.90;51.50;;;;;;5116160;28;20161;-65
2022/05/31 12:28:21;;;;;;;3.75;1.75;;;21.80;52.40;;;;;;5116563;28;20313;-64
2022/05/31 12:31:13;;;;;;;3.38;1.40;;;21.70;52.70;;;;;;5114909;28;20576;-67
2022/05/31 12:33:47;;;;;;;1.60;1.50;;;21.80;52.80;;;;;;5115285;28;20575;-64
2022/05/31 12:36:17;;;;;;;2.10;1.50;;;22.00;53.70;;;;;;5115669;28;20586;-66
2022/05/31 12:39:02;;;;;;;2.28;1.35;;;22.10;53.00;;;;;;5115656;28;20477;-65
2022/05/31 12:41:36;;;;;;;1.75;1.55;;;22.00;51.80;;;;;;5115742;28;20150;-67
2022/05/31 12:44:09;;;;;;;2.05;1.30;;;21.80;51.00;;;;;;5114281;28;20194;-63
2022/05/31 12:46:40;;;;;;;1.23;1.13;;;22.00;51.00;;;;;;5104524;28;20178;-65
2022/05/31 12:49:10;;;;;;;1.67;1.58;;;22.20;52.60;;;;;;5096430;28;20216;-67
2022/05/31 12:51:36;;;;;;;1.95;1.75;;;22.20;51.10;;;;;;5095935;28;20215;-66
2022/05/31 12:54:10;;;;;;;7.25;2.42;;;21.90;50.50;;;;;;5094728;28;20250;-65
2022/05/31 12:56:38;;;;;;;4.95;1.77;;;21.80;51.70;;;;;;5094445;28;20167;-65
2022/05/31 12:59:06;;;;;;;2.55;1.65;;;21.90;51.30;;;;;;5094913;28;20182;-66
2022/05/31 13:01:35;;;;;;;1.85;1.70;;;22.20;53.60;;;;;;5093381;28;20228;-65
2022/05/31 13:04:20;;;;;;;1.50;1.40;;;22.00;54.20;;;;;;5093978;28;20702;-65
2022/05/31 13:07:10;;;;;;;3.83;2.03;;;21.70;54.00;;;;;;5093635;28;20170;-65
2022/05/31 13:09:40;;;;;;;2.60;1.70;;;22.20;56.80;;;;;;5094785;28;20177;-65
2022/05/31 13:20:46;;;;;;;1.92;1.60;;;21.80;55.00;;;;;;5094820;28;20216;-65
2022/05/31 13:23:21;;;;;;;2.42;1.98;;;21.70;55.60;;;;;;5093894;28;20195;-65
2022/05/31 13:25:53;;;;;;;1.40;1.30;;;21.40;56.00;;;;;;5093930;28;20170;-66
2022/05/31 13:28:40;;;;;;;1.95;1.52;;;21.50;56.20;;;;;;5094348;28;20266;-66
2022/05/31 13:31:13;;;;;;;2.05;1.33;;;21.60;56.00;;;;;;5094011;28;20554;-67
2022/05/31 13:33:39;;;;;;;2.25;1.45;;;21.50;56.20;;;;;;5094302;28;20163;-66
2022/05/31 13:36:19;;;;;;;1.95;1.52;;;21.60;57.00;;;;;;5094353;28;20505;-64
2022/05/31 13:38:48;;;;;;;3.03;1.45;;;21.80;57.10;;;;;;5093935;28;20167;-65
2022/05/31 13:41:17;;;;;;;2.15;1.60;;;22.00;54.80;;;;;;5094077;28;20498;-65
2022/05/31 13:43:50;;;;;;;3.45;1.90;;;22.80;55.20;;;;;;5093685;28;20210;-65
2022/05/31 13:46:15;;;;;;;2.30;1.50;;;23.00;53.30;;;;;;5093837;28;20612;-65